Time;durP1;ratioP1;P1;durP2;ratioP2;P2;SDS_P1;SDS_P2;PMS_P1;PMS_P2;Temp;Humidity;BMP_temperature;BMP_pressure;BME280_temperature;BME280_humidity;BME280_pressure;Samples;Min_cycle;Max_cycle;Signal;HPM_P1;HPM_P2
2022/01/11 00:01:16;;;;;;;38.15;19.20;;;;;;;0.11;100.00;103188.41;5063660;28;20020;-83
2022/01/11 00:03:42;;;;;;;36.92;17.83;;;;;;;0.07;99.96;103190.06;5054987;28;20504;-83
2022/01/11 00:08:44;;;;;;;33.67;17.80;;;;;;;0.13;99.82;103181.47;5065607;28;20048;-83
2022/01/11 00:11:09;;;;;;;37.33;18.20;;;;;;;0.13;99.70;103187.63;5035795;28;20194;-82
2022/01/11 00:13:37;;;;;;;33.97;17.40;;;;;;;0.12;99.66;103190.16;5053189;28;20120;-83
2022/01/11 00:16:03;;;;;;;33.05;15.85;;;;;;;0.06;99.78;103197.84;5035622;28;20029;-85
2022/01/11 00:18:29;;;;;;;40.78;18.95;;;;;;;0.02;100.00;103204.75;5051077;28;20496;-87
2022/01/11 00:20:55;;;;;;;30.50;15.25;;;;;;;-0.02;100.00;103210.75;5038796;28;20024;-87
2022/01/11 00:25:50;;;;;;;35.30;16.98;;;;;;;-0.02;100.00;103209.00;5069291;28;20075;-86
2022/01/11 00:28:17;;;;;;;36.95;17.38;;;;;;;-0.02;100.00;103216.00;5038050;28;20515;-88
2022/01/11 00:30:44;;;;;;;40.45;19.42;;;;;;;-0.01;100.00;103217.78;5051455;28;20119;-88
2022/01/11 00:33:15;;;;;;;34.22;15.63;;;;;;;0.00;100.00;103209.06;5046738;28;20135;-85
2022/01/11 00:35:45;;;;;;;28.88;14.57;;;;;;;0.05;100.00;103225.84;5046597;28;20495;-84
2022/01/11 00:38:16;;;;;;;39.03;18.13;;;;;;;0.04;100.00;103224.06;5061385;28;20031;-84
2022/01/11 00:40:49;;;;;;;39.10;17.67;;;;;;;0.06;100.00;103219.75;5038064;28;20027;-84
2022/01/11 00:43:16;;;;;;;35.17;16.40;;;;;;;0.07;100.00;103218.00;5065677;28;20074;-86
2022/01/11 00:45:42;;;;;;;40.55;18.55;;;;;;;0.08;100.00;103218.06;5044382;28;20046;-85
2022/01/11 00:48:07;;;;;;;42.55;18.95;;;;;;;0.09;100.00;103214.59;5059176;28;20472;-85
2022/01/11 00:50:33;;;;;;;43.97;18.92;;;;;;;0.10;100.00;103213.75;5037169;28;20126;-85
2022/01/11 00:53:00;;;;;;;35.92;16.67;;;;;;;0.12;100.00;103222.56;5048207;28;20044;-86
2022/01/11 00:55:25;;;;;;;39.08;18.27;;;;;;;0.09;100.00;103230.34;5041736;28;20043;-87
2022/01/11 00:57:50;;;;;;;46.70;21.38;;;;;;;0.08;100.00;103225.94;5054895;28;20043;-86
2022/01/11 01:00:16;;;;;;;50.63;20.27;;;;;;;0.09;100.00;103226.84;5035177;28;20035;-86
2022/01/11 01:02:42;;;;;;;42.20;19.35;;;;;;;0.08;100.00;103220.69;5042359;28;20284;-84
2022/01/11 01:05:08;;;;;;;53.47;20.83;;;;;;;0.13;100.00;103228.69;5051921;28;20024;-85
2022/01/11 01:07:33;;;;;;;49.60;21.17;;;;;;;0.17;100.00;103224.44;5040747;28;20035;-86
2022/01/11 01:10:05;;;;;;;44.45;20.17;;;;;;;0.18;100.00;103226.22;5049957;28;20025;-84
2022/01/11 01:12:31;;;;;;;52.30;25.25;;;;;;;0.18;100.00;103219.25;5047509;28;20019;-85
2022/01/11 01:14:57;;;;;;;;;;;;;;;0.19;100.00;103218.44;5076942;28;20039;-85
2022/01/11 01:17:22;;;;;;;40.23;17.60;;;;;;;0.17;100.00;103222.72;5055328;28;19912;-87
2022/01/11 01:19:47;;;;;;;43.92;20.15;;;;;;;0.17;100.00;103219.19;5041594;28;20080;-85
2022/01/11 01:22:13;;;;;;;41.90;19.50;;;;;;;0.18;100.00;103216.63;5060271;28;20036;-84
2022/01/11 01:24:38;;;;;;;43.97;19.83;;;;;;;0.21;100.00;103219.34;5036773;28;20031;-83
2022/01/11 01:27:04;;;;;;;49.42;21.45;;;;;;;0.20;100.00;103221.91;5035761;28;20388;-85
2022/01/11 01:29:29;;;;;;;49.65;21.85;;;;;;;0.15;100.00;103222.66;5051346;28;20442;-85
2022/01/11 01:31:55;;;;;;;50.22;20.27;;;;;;;0.19;100.00;103228.00;5036757;28;20031;-86
2022/01/11 01:34:21;;;;;;;51.00;22.45;;;;;;;0.18;100.00;103226.22;5052471;28;20039;-85
2022/01/11 01:36:46;;;;;;;60.70;24.52;;;;;;;0.19;100.00;103228.00;5040204;28;20515;-86
2022/01/11 01:39:12;;;;;;;58.90;22.80;;;;;;;0.21;100.00;103228.97;5041752;28;20059;-85
2022/01/11 01:41:42;;;;;;;63.88;27.00;;;;;;;0.21;100.00;103227.22;5033956;28;20481;-86
2022/01/11 01:44:08;;;;;;;59.67;26.27;;;;;;;0.25;100.00;103226.47;5038567;28;20016;-83
2022/01/11 01:46:33;;;;;;;70.50;27.77;;;;;;;0.29;99.79;103232.72;5034789;28;20035;-85
2022/01/11 01:49:00;;;;;;;69.43;28.35;;;;;;;0.29;99.93;103232.72;5061997;28;20100;-83
2022/01/11 01:51:26;;;;;;;66.00;27.33;;;;;;;0.28;100.00;103234.44;5051471;28;20037;-85
2022/01/11 01:53:52;;;;;;;67.53;28.35;;;;;;;0.28;100.00;103234.44;5066293;28;20021;-84
2022/01/11 01:56:20;;;;;;;62.33;26.48;;;;;;;0.30;100.00;103237.13;5056362;28;20028;-83
2022/01/11 01:58:46;;;;;;;66.60;26.25;;;;;;;0.31;100.00;103236.25;5039889;28;20028;-86
2022/01/11 02:01:13;;;;;;;62.35;26.35;;;;;;;0.33;100.00;103236.31;5035970;28;20028;-84
2022/01/11 02:03:41;;;;;;;54.88;24.83;;;;;;;0.34;100.00;103233.75;5052434;28;20107;-85
2022/01/11 02:06:11;;;;;;;62.38;25.40;;;;;;;0.36;99.96;103229.44;5064580;28;20120;-84
2022/01/11 02:08:38;;;;;;;57.67;24.77;;;;;;;0.34;99.71;103236.38;5056994;28;20110;-84
2022/01/11 02:11:03;;;;;;;56.53;25.23;;;;;;;0.34;99.66;103227.63;5067705;28;20467;-83
2022/01/11 02:13:29;;;;;;;59.08;24.20;;;;;;;0.33;99.70;103231.06;5055014;28;20066;-83
2022/01/11 02:15:55;;;;;;;56.10;24.40;;;;;;;0.31;99.96;103238.88;5040775;28;20058;-84
2022/01/11 02:18:23;;;;;;;;;;;;;;;0.28;100.00;103242.31;5041130;28;20099;-85
2022/01/11 02:20:50;;;;;;;54.42;22.50;;;;;;;0.33;100.00;103252.09;5064906;28;19916;-84
2022/01/11 02:23:17;;;;;;;63.00;26.60;;;;;;;0.32;100.00;103256.41;5036714;28;20028;-84
2022/01/11 02:25:43;;;;;;;52.85;22.23;;;;;;;0.33;100.00;103262.59;5054090;28;20027;-85
2022/01/11 02:28:12;;;;;;;54.28;22.73;;;;;;;0.37;100.00;103257.47;5052092;28;20131;-85
2022/01/11 02:30:38;;;;;;;58.17;26.00;;;;;;;0.39;99.73;103262.78;5054356;28;20027;-83
2022/01/11 02:33:06;;;;;;;62.03;26.63;;;;;;;0.38;99.77;103254.00;5052373;28;20028;-84
2022/01/11 02:35:32;;;;;;;58.17;25.25;;;;;;;0.41;99.81;103254.09;5041229;28;20098;-83
2022/01/11 02:37:57;;;;;;;48.20;22.27;;;;;;;0.39;99.44;103255.75;5036644;28;20016;-84
2022/01/11 02:40:22;;;;;;;56.60;24.77;;;;;;;0.40;100.00;103248.81;5055158;28;20029;-84
2022/01/11 02:42:48;;;;;;;51.45;22.92;;;;;;;0.40;99.79;103254.94;5054792;28;20028;-86
2022/01/11 02:45:15;;;;;;;61.72;24.23;;;;;;;0.36;99.98;103247.81;5041063;28;20747;-86
2022/01/11 02:47:41;;;;;;;56.97;21.75;;;;;;;0.36;100.00;103257.41;5039555;28;20042;-86
2022/01/11 02:50:08;;;;;;;64.00;24.60;;;;;;;0.40;100.00;103248.81;5053072;28;20040;-86
2022/01/11 02:52:33;;;;;;;52.95;22.27;;;;;;;0.40;100.00;103252.31;5036491;28;20045;-85
2022/01/11 02:54:58;;;;;;;62.28;26.25;;;;;;;0.47;100.00;103256.91;5043456;28;20092;-85
2022/01/11 02:57:24;;;;;;;67.65;29.00;;;;;;;0.44;100.00;103248.94;5042677;28;20099;-86
2022/01/11 02:59:49;;;;;;;51.03;21.08;;;;;;;0.44;100.00;103254.19;5052879;28;20088;-86
2022/01/11 03:02:14;;;;;;;61.17;24.75;;;;;;;0.43;100.00;103259.38;5043791;28;20075;-87
2022/01/11 03:04:40;;;;;;;62.40;25.38;;;;;;;0.45;100.00;103266.50;5042895;28;20123;-86
2022/01/11 03:07:05;;;;;;;61.42;24.90;;;;;;;0.47;100.00;103267.41;5037699;28;20067;-86
2022/01/11 03:09:41;;;;;;;62.30;25.65;;;;;;;0.45;100.00;103274.38;5055577;28;20031;-84
2022/01/11 03:12:07;;;;;;;61.92;23.75;;;;;;;0.47;100.00;103269.16;5038553;28;20124;-84
2022/01/11 03:14:32;;;;;;;55.53;22.55;;;;;;;0.52;100.00;103274.56;5053158;28;20143;-83
2022/01/11 03:16:58;;;;;;;52.13;21.20;;;;;;;0.52;100.00;103278.06;5053818;28;20103;-85
2022/01/11 03:19:23;;;;;;;50.75;22.20;;;;;;;0.52;100.00;103279.81;5053950;28;20032;-84
2022/01/11 03:21:48;;;;;;;52.22;22.15;;;;;;;0.53;100.00;103277.22;5058203;28;20054;-85
2022/01/11 03:24:14;;;;;;;55.60;24.38;;;;;;;0.51;100.00;103278.00;5040333;28;20025;-86
2022/01/11 03:26:40;;;;;;;60.25;25.55;;;;;;;0.53;99.96;103264.06;5038584;28;20032;-83
2022/01/11 03:29:05;;;;;;;60.78;25.15;;;;;;;0.54;99.52;103275.47;5038456;28;20590;-84
2022/01/11 03:31:30;;;;;;;62.92;25.58;;;;;;;0.54;99.51;103272.84;5036738;28;20021;-84
2022/01/11 03:33:55;;;;;;;67.97;27.13;;;;;;;0.51;99.35;103268.38;5055339;28;20028;-84
2022/01/11 03:36:21;;;;;;;65.90;26.50;;;;;;;0.52;99.58;103272.81;5054196;28;20477;-84
2022/01/11 03:38:46;;;;;;;57.50;24.98;;;;;;;0.52;99.55;103274.56;5037580;28;20491;-88
2022/01/11 03:41:12;;;;;;;51.78;22.45;;;;;;;0.50;99.76;103277.09;5054710;28;20069;-85
2022/01/11 03:43:38;;;;;;;;;;;;;;;0.52;100.00;103277.19;5037373;28;20108;-87
2022/01/11 03:46:04;;;;;;;58.13;23.07;;;;;;;0.47;99.97;103272.66;5055536;28;19998;-85
2022/01/11 03:48:29;;;;;;;63.20;25.88;;;;;;;0.44;100.00;103262.06;5037034;28;20024;-84
2022/01/11 03:50:56;;;;;;;61.88;25.75;;;;;;;0.50;99.65;103256.09;5054994;28;20552;-84
2022/01/11 03:53:26;;;;;;;61.97;25.83;;;;;;;0.50;99.58;103256.09;5039133;28;20139;-84
2022/01/11 03:58:21;;;;;;;62.95;26.92;;;;;;;0.47;99.74;103248.13;5054889;28;20055;-83
2022/01/11 04:00:46;;;;;;;;;;;;;;;0.44;99.81;103246.31;5058872;28;20032;-85
2022/01/11 04:03:12;;;;;;;57.27;23.93;;;;;;;0.38;99.77;103242.59;5058942;28;20020;-86
2022/01/11 04:05:38;;;;;;;59.72;24.90;;;;;;;0.37;99.89;103249.59;5039447;28;20030;-83
2022/01/11 04:08:03;;;;;;;65.07;25.92;;;;;;;0.34;99.91;103249.50;5053571;28;20020;-85
2022/01/11 04:10:29;;;;;;;58.10;24.80;;;;;;;0.31;99.95;103254.63;5045951;28;20027;-82
2022/01/11 04:12:54;;;;;;;65.45;27.08;;;;;;;0.26;100.00;103251.91;5040457;28;20451;-85
2022/01/11 04:15:20;;;;;;;59.47;24.70;;;;;;;0.24;100.00;103261.44;5055413;28;20120;-86
2022/01/11 04:17:45;;;;;;;60.55;26.25;;;;;;;0.27;100.00;103263.28;5054249;28;20024;-83
2022/01/11 04:20:11;;;;;;;59.00;25.55;;;;;;;0.20;100.00;103261.28;5037716;28;20040;-85
2022/01/11 04:22:37;;;;;;;63.05;26.30;;;;;;;0.20;100.00;103264.81;5057124;28;20024;-85
2022/01/11 04:25:03;;;;;;;54.67;24.13;;;;;;;0.21;100.00;103263.97;5037072;28;20024;-84
2022/01/11 04:27:28;;;;;;;55.00;23.75;;;;;;;0.17;100.00;103272.59;5061388;28;20031;-84
2022/01/11 04:29:53;;;;;;;54.47;24.57;;;;;;;0.19;100.00;103278.81;5042832;28;20032;-84
2022/01/11 04:32:19;;;;;;;52.13;24.05;;;;;;;0.19;100.00;103270.00;5039285;28;20277;-84
2022/01/11 04:34:44;;;;;;;61.35;26.45;;;;;;;0.20;100.00;103271.81;5038183;28;20123;-84
2022/01/11 04:37:10;;;;;;;54.78;24.98;;;;;;;0.21;100.00;103260.47;5037545;28;20024;-82
2022/01/11 04:39:35;;;;;;;53.50;24.83;;;;;;;0.18;100.00;103263.88;5035907;28;20027;-82
2022/01/11 04:42:00;;;;;;;49.20;25.23;;;;;;;0.19;99.95;103263.03;5052621;28;20025;-84
2022/01/11 04:44:26;;;;;;;56.05;26.60;;;;;;;0.18;100.00;103270.84;5037672;28;20119;-85
2022/01/11 04:46:51;;;;;;;57.17;25.92;;;;;;;0.17;100.00;103269.06;5052765;28;20024;-85
2022/01/11 04:49:17;;;;;;;58.70;25.35;;;;;;;0.15;100.00;103269.91;5052798;28;20503;-84
2022/01/11 04:51:42;;;;;;;59.05;27.30;;;;;;;0.18;100.00;103274.38;5054381;28;20377;-83
2022/01/11 04:54:08;;;;;;;59.10;27.42;;;;;;;0.22;100.00;103267.50;5042790;28;20131;-83
2022/01/11 04:56:33;;;;;;;57.05;25.63;;;;;;;0.22;100.00;103270.13;5036114;28;20074;-84
2022/01/11 04:58:59;;;;;;;61.00;26.88;;;;;;;0.24;100.00;103273.66;5036562;28;20473;-82
2022/01/11 05:01:24;;;;;;;56.45;26.77;;;;;;;0.25;100.00;103270.19;5037782;28;20024;-83
2022/01/11 05:03:49;;;;;;;59.55;27.95;;;;;;;0.28;99.95;103268.56;5036391;28;20025;-85
2022/01/11 05:06:15;;;;;;;58.45;26.60;;;;;;;0.26;99.93;103266.75;5036920;28;20024;-83
2022/01/11 05:08:42;;;;;;;52.78;25.98;;;;;;;0.29;99.95;103275.59;5056282;28;20031;-83
2022/01/11 05:11:08;;;;;;;53.67;26.58;;;;;;;0.29;100.00;103278.22;5053992;28;20020;-83
2022/01/11 05:13:34;;;;;;;51.78;25.83;;;;;;;0.28;100.00;103276.44;5035328;28;20043;-83
2022/01/11 05:16:02;;;;;;;54.05;26.98;;;;;;;0.27;99.84;103273.78;5052236;28;20035;-83
2022/01/11 05:18:27;;;;;;;53.60;27.25;;;;;;;0.24;100.00;103273.66;5037948;28;20500;-84
2022/01/11 05:20:56;;;;;;;46.85;24.25;;;;;;;0.24;100.00;103269.31;5035800;28;20054;-82
2022/01/11 05:23:21;;;;;;;50.70;26.02;;;;;;;0.23;100.00;103267.53;5053756;28;20103;-84
2022/01/11 05:25:47;;;;;;;51.28;26.13;;;;;;;0.25;99.79;103275.44;5054821;28;20051;-85
2022/01/11 05:28:12;;;;;;;44.65;22.95;;;;;;;0.22;99.93;103272.75;5088651;28;20039;-83
2022/01/11 05:30:37;;;;;;;48.53;24.50;;;;;;;0.23;100.00;103274.53;5038163;28;20472;-82
2022/01/11 05:33:03;;;;;;;45.85;23.27;;;;;;;0.27;99.90;103271.16;5036894;28;20020;-84
2022/01/11 05:35:28;;;;;;;44.38;23.17;;;;;;;0.27;100.00;103266.78;5039682;28;20025;-84
2022/01/11 05:37:54;;;;;;;43.05;24.20;;;;;;;0.27;99.79;103271.16;5042753;28;20020;-85
2022/01/11 05:40:20;;;;;;;43.13;23.92;;;;;;;0.27;99.96;103272.03;5053811;28;20016;-82
2022/01/11 05:42:46;;;;;;;42.30;23.53;;;;;;;0.28;99.74;103276.44;5060815;28;20017;-83
2022/01/11 05:45:12;;;;;;;39.05;22.33;;;;;;;0.30;99.65;103268.63;5042467;28;20328;-82
2022/01/11 05:47:38;;;;;;;42.28;22.30;;;;;;;0.32;99.66;103280.06;5044755;28;20020;-84
2022/01/11 05:50:07;;;;;;;44.60;22.70;;;;;;;0.34;99.70;103288.00;5039247;28;20063;-86
2022/01/11 05:52:34;;;;;;;45.08;23.20;;;;;;;0.37;99.46;103293.31;5039243;28;20680;-84
2022/01/11 05:55:00;;;;;;;38.10;22.35;;;;;;;0.38;99.24;103290.78;5044252;28;20115;-83
2022/01/11 05:57:26;;;;;;;39.42;22.02;;;;;;;0.36;99.36;103289.81;5045879;28;20111;-84
2022/01/11 05:59:51;;;;;;;37.47;22.63;;;;;;;0.37;99.42;103291.63;5049343;28;20085;-85
2022/01/11 06:02:16;;;;;;;39.13;21.48;;;;;;;0.38;99.28;103282.91;5044774;28;20024;-85
2022/01/11 06:04:42;;;;;;;37.38;21.40;;;;;;;0.37;99.41;103289.00;5047915;28;20548;-85
2022/01/11 06:07:07;;;;;;;35.13;21.90;;;;;;;0.39;99.17;103292.53;5039210;28;20032;-84
2022/01/11 06:09:32;;;;;;;33.90;19.92;;;;;;;0.39;99.14;103289.03;5047193;28;20090;-84
2022/01/11 06:11:58;;;;;;;34.28;19.20;;;;;;;0.36;99.36;103283.66;5041120;28;20048;-86
2022/01/11 06:14:23;;;;;;;33.50;19.33;;;;;;;0.39;99.23;103289.91;5057179;28;20099;-83
2022/01/11 06:16:49;;;;;;;36.00;18.25;;;;;;;0.36;99.31;103295.06;5071471;28;20079;-84
2022/01/11 06:19:14;;;;;;;36.88;20.17;;;;;;;0.34;99.61;103302.00;5064192;28;20495;-84
2022/01/11 06:21:39;;;;;;;36.45;19.92;;;;;;;0.38;99.23;103309.16;5055605;28;20066;-85
2022/01/11 06:24:05;;;;;;;37.63;19.33;;;;;;;0.36;99.67;103307.28;5042333;28;20495;-85
2022/01/11 06:26:31;;;;;;;37.13;19.90;;;;;;;0.31;99.65;103305.44;5054581;28;20047;-84
2022/01/11 06:28:57;;;;;;;33.67;20.50;;;;;;;0.31;99.65;103307.16;5069901;28;20021;-85
2022/01/11 06:31:25;;;;;;;34.40;19.95;;;;;;;0.35;99.39;103308.13;5038459;28;20028;-84
2022/01/11 06:33:51;;;;;;;37.53;20.95;;;;;;;0.35;99.39;103308.13;5045102;28;20479;-86
2022/01/11 06:36:18;;;;;;;30.92;17.98;;;;;;;0.27;99.50;103318.41;5048719;28;20031;-85
2022/01/11 06:38:47;;;;;;;29.70;16.90;;;;;;;0.24;99.77;103321.84;5061167;28;20027;-85
2022/01/11 06:41:13;;;;;;;35.38;19.55;;;;;;;0.29;99.38;103321.97;5054538;28;20094;-85
2022/01/11 06:43:39;;;;;;;35.10;19.25;;;;;;;0.30;99.70;103326.41;5054814;28;20020;-85
2022/01/11 06:46:05;;;;;;;31.02;19.02;;;;;;;0.30;99.28;103324.66;5081574;28;20495;-86
2022/01/11 06:48:31;;;;;;;34.83;19.38;;;;;;;0.34;99.43;103330.00;5045237;28;20110;-85
2022/01/11 06:50:56;;;;;;;32.67;17.52;;;;;;;0.34;99.61;103330.00;5055417;28;20182;-85
2022/01/11 06:53:21;;;;;;;32.35;19.05;;;;;;;0.37;99.15;103331.00;5037899;28;20522;-85
2022/01/11 06:55:47;;;;;;;32.45;19.17;;;;;;;0.35;99.48;103329.13;5038001;28;20028;-85
2022/01/11 06:58:13;;;;;;;33.50;18.92;;;;;;;0.33;99.57;103330.84;5039382;28;20025;-88
2022/01/11 07:00:39;;;;;;;30.10;17.65;;;;;;;0.36;99.68;103329.22;5056148;28;20020;-86
2022/01/11 07:03:04;;;;;;;30.80;17.90;;;;;;;0.40;99.56;103330.19;5040505;28;20379;-85
2022/01/11 07:05:29;;;;;;;27.98;17.10;;;;;;;0.44;99.69;103338.22;5045195;28;20147;-85
2022/01/11 07:07:55;;;;;;;30.05;17.55;;;;;;;0.48;99.27;103336.59;5071731;28;20034;-85
2022/01/11 07:10:20;;;;;;;31.90;17.52;;;;;;;0.49;99.17;103332.22;5039101;28;20028;-86
2022/01/11 07:12:45;;;;;;;32.50;17.20;;;;;;;0.52;98.84;103334.97;5038876;28;20477;-87
2022/01/11 07:15:11;;;;;;;29.00;16.38;;;;;;;0.55;98.08;103335.03;5038572;28;20047;-85
2022/01/11 07:17:37;;;;;;;24.85;15.27;;;;;;;0.53;98.48;103340.25;5067948;28;20080;-87
2022/01/11 07:20:04;;;;;;;27.65;16.80;;;;;;;0.54;97.89;103346.38;5041475;28;20104;-85
2022/01/11 07:22:29;;;;;;;25.10;15.32;;;;;;;0.54;97.73;103347.28;5040540;28;20476;-85
2022/01/11 07:24:54;;;;;;;26.30;15.15;;;;;;;0.55;97.56;103356.97;5037994;28;20102;-86
2022/01/11 07:27:20;;;;;;;31.25;16.55;;;;;;;0.54;97.63;103362.13;5045324;28;20020;-86
2022/01/11 07:29:46;;;;;;;25.48;14.88;;;;;;;0.52;97.66;103363.84;5060485;28;20530;-85
2022/01/11 07:32:11;;;;;;;26.48;15.35;;;;;;;0.44;97.75;103369.75;5043016;28;20028;-86
2022/01/11 07:34:36;;;;;;;24.75;13.43;;;;;;;0.43;97.86;103365.31;5043116;28;20031;-89
2022/01/11 07:37:02;;;;;;;26.88;15.65;;;;;;;0.45;98.27;103374.16;5059317;28;20034;-86
2022/01/11 07:39:27;;;;;;;28.23;14.85;;;;;;;0.45;98.20;103366.28;5042596;28;20016;-86
2022/01/11 07:41:53;;;;;;;29.75;15.05;;;;;;;0.46;97.67;103357.53;5054731;28;20021;-87
2022/01/11 07:44:18;;;;;;;28.20;15.97;;;;;;;0.46;97.75;103359.28;5035875;28;20102;-84
2022/01/11 07:46:44;;;;;;;26.60;15.27;;;;;;;0.47;97.83;103366.31;5032651;28;20279;-86
2022/01/11 07:49:10;;;;;;;;;;;;;;;0.50;97.52;103370.78;5078231;28;20024;-86
2022/01/11 07:51:35;;;;;;;22.43;12.87;;;;;;;0.49;97.41;103380.41;5044535;28;19934;-83
2022/01/11 07:54:01;;;;;;;24.52;15.05;;;;;;;0.50;97.38;103373.41;5039714;28;20024;-85
2022/01/11 07:56:26;;;;;;;24.75;13.68;;;;;;;0.53;97.31;103368.25;5051977;28;20043;-83
2022/01/11 07:58:52;;;;;;;28.48;14.98;;;;;;;0.54;97.16;103377.91;5047488;28;20098;-85
2022/01/11 08:01:17;;;;;;;22.75;14.23;;;;;;;0.57;96.50;103378.00;5056133;28;20028;-84
2022/01/11 08:03:43;;;;;;;31.25;14.93;;;;;;;0.56;96.37;103371.88;5054410;28;20052;-85
2022/01/11 08:06:08;;;;;;;35.08;15.70;;;;;;;0.58;96.33;103377.16;5035082;28;20029;-86
2022/01/11 08:08:34;;;;;;;30.70;14.65;;;;;;;0.54;96.50;103375.25;5040391;28;20493;-88
2022/01/11 08:11:00;;;;;;;24.20;14.13;;;;;;;0.56;96.98;103378.84;5083138;28;20019;-86
2022/01/11 08:13:26;;;;;;;23.77;13.18;;;;;;;0.59;96.49;103384.22;5068564;28;20151;-86
2022/01/11 08:15:51;;;;;;;25.00;13.05;;;;;;;0.60;96.25;103386.00;5046666;28;20024;-84
2022/01/11 08:18:16;;;;;;;32.60;14.90;;;;;;;0.58;96.17;103383.31;5053708;28;20077;-85
2022/01/11 08:20:43;;;;;;;21.55;13.27;;;;;;;0.52;96.33;103388.38;5052494;28;20464;-86
2022/01/11 08:23:10;;;;;;;22.17;12.57;;;;;;;0.56;96.08;103390.25;5053105;28;20125;-88
2022/01/11 08:25:36;;;;;;;24.98;13.32;;;;;;;0.54;96.22;103391.94;5040913;28;20036;-85
2022/01/11 08:28:01;;;;;;;23.88;13.27;;;;;;;0.56;96.10;103394.59;5050545;28;20495;-85
2022/01/11 08:30:26;;;;;;;23.13;14.02;;;;;;;0.53;96.14;103399.78;5059222;28;20027;-85
2022/01/11 08:32:52;;;;;;;22.00;12.93;;;;;;;0.54;96.23;103402.44;5047444;28;20027;-84
2022/01/11 08:35:17;;;;;;;24.95;13.63;;;;;;;0.52;95.75;103396.25;5041916;28;20055;-85
2022/01/11 08:37:43;;;;;;;26.20;14.88;;;;;;;0.53;96.02;103402.41;5046184;28;20020;-85
2022/01/11 08:40:09;;;;;;;22.20;12.82;;;;;;;0.54;96.10;103398.91;5044642;28;20036;-86
2022/01/11 08:42:36;;;;;;;28.35;13.05;;;;;;;0.52;96.29;103392.72;5057193;28;20473;-85
2022/01/11 08:45:03;;;;;;;26.42;13.63;;;;;;;0.52;96.13;103398.00;5040024;28;20541;-87
2022/01/11 08:47:30;;;;;;;20.58;12.00;;;;;;;0.53;95.76;103397.16;5059588;28;20032;-86
2022/01/11 08:49:57;;;;;;;19.77;12.05;;;;;;;0.59;95.72;103397.34;5074024;28;20035;-85
2022/01/11 08:52:23;;;;;;;21.15;12.23;;;;;;;0.58;95.54;103396.44;5035647;28;20127;-85
2022/01/11 08:54:48;;;;;;;20.65;11.45;;;;;;;0.58;95.88;103398.19;5043481;28;20059;-85
2022/01/11 08:57:18;;;;;;;25.02;13.07;;;;;;;0.62;95.49;103397.44;5043534;28;20107;-87
2022/01/11 08:59:44;;;;;;;24.30;12.90;;;;;;;0.60;95.71;103401.75;5045361;28;20523;-85
2022/01/11 09:02:10;;;;;;;23.42;12.60;;;;;;;0.58;95.66;103401.69;5034774;28;20065;-86
2022/01/11 09:04:35;;;;;;;23.95;12.60;;;;;;;0.58;95.79;103398.19;5065919;28;20033;-89
2022/01/11 09:07:01;;;;;;;24.38;13.65;;;;;;;0.54;95.95;103404.16;5065835;28;20097;-85
2022/01/11 09:09:28;;;;;;;23.02;12.38;;;;;;;0.52;96.49;103406.75;5062564;28;20042;-87
2022/01/11 09:11:54;;;;;;;21.13;10.60;;;;;;;0.50;96.47;103418.94;5045709;28;20035;-85
2022/01/11 09:14:19;;;;;;;23.80;11.63;;;;;;;0.45;97.09;103417.88;5063344;28;20021;-87
2022/01/11 09:16:45;;;;;;;19.60;11.27;;;;;;;0.42;97.04;103426.56;5055343;28;20027;-86
2022/01/11 09:19:12;;;;;;;21.13;11.32;;;;;;;0.40;97.29;103425.63;5047432;28;20519;-85
2022/01/11 09:21:37;;;;;;;17.02;9.63;;;;;;;0.42;97.24;103425.69;5064006;28;20057;-85
2022/01/11 09:24:03;;;;;;;22.27;10.90;;;;;;;0.43;97.24;103423.09;5042292;28;20024;-85
2022/01/11 09:26:30;;;;;;;22.88;10.85;;;;;;;0.50;97.15;103418.06;5052627;28;20025;-85
2022/01/11 09:28:55;;;;;;;20.45;10.15;;;;;;;0.65;97.58;103417.69;5039548;28;20017;-85
2022/01/11 09:31:20;;;;;;;20.15;11.50;;;;;;;0.76;97.17;103416.25;5066257;28;20026;-84
2022/01/11 09:33:46;;;;;;;21.98;10.82;;;;;;;0.81;96.33;103419.03;5064089;28;20131;-84
2022/01/11 09:36:11;;;;;;;19.33;10.63;;;;;;;1.05;97.33;103418.91;5039399;28;20173;-83
2022/01/11 09:38:37;;;;;;;24.08;12.27;;;;;;;1.76;98.28;103422.75;5041773;28;20424;-84
2022/01/11 09:41:03;;;;;;;19.50;10.63;;;;;;;2.77;91.83;103418.28;5049886;28;20082;-85
2022/01/11 09:43:29;;;;;;;17.67;10.05;;;;;;;3.37;84.16;103410.84;5042834;28;20028;-84
2022/01/11 09:45:56;;;;;;;20.33;10.43;;;;;;;3.69;83.87;103422.06;5048350;28;20476;-86
2022/01/11 09:48:27;;;;;;;17.73;11.32;;;;;;;3.98;82.31;103419.09;5040807;28;20085;-85
2022/01/11 09:50:53;;;;;;;13.82;9.52;;;;;;;3.96;79.88;103420.81;5053766;28;20036;-85
2022/01/11 09:53:18;;;;;;;16.85;10.20;;;;;;;3.64;80.34;103416.69;5037203;28;20374;-87
2022/01/11 09:55:47;;;;;;;17.58;10.07;;;;;;;3.42;83.11;103414.47;5015363;28;20183;-84
2022/01/11 09:58:13;;;;;;;21.67;10.60;;;;;;;3.38;81.17;103415.25;5013280;28;20378;-85
2022/01/11 10:00:40;;;;;;;18.50;10.25;;;;;;;3.15;83.52;103410.38;5030794;28;20090;-85
2022/01/11 10:03:06;;;;;;;34.63;11.27;;;;;;;3.05;84.42;103406.63;5011671;28;20053;-87
2022/01/11 10:05:33;;;;;;;19.45;10.68;;;;;;;3.34;85.75;103414.28;5027508;28;20055;-86
2022/01/11 10:07:58;;;;;;;15.90;9.65;;;;;;;3.90;81.53;103416.31;5013709;28;20477;-85
2022/01/11 10:10:26;;;;;;;18.13;10.23;;;;;;;3.87;81.35;103418.88;5030622;28;20060;-87
2022/01/11 10:12:55;;;;;;;16.33;10.77;;;;;;;3.56;80.91;103422.69;5030254;28;20033;-90
2022/01/11 10:15:30;;;;;;;16.00;9.43;;;;;;;3.28;83.40;103420.34;5014727;28;20025;-90
2022/01/11 10:17:55;;;;;;;16.98;9.93;;;;;;;3.33;82.89;103431.88;5014062;28;20033;-89
2022/01/11 10:20:22;;;;;;;17.30;9.38;;;;;;;3.38;82.21;103439.00;5014669;28;20068;-91
2022/01/11 10:22:56;;;;;;;19.10;10.25;;;;;;;3.32;82.75;103431.84;5010561;28;20033;-90
2022/01/11 10:25:22;;;;;;;14.88;9.98;;;;;;;3.24;82.31;103442.22;5014215;28;20068;-89
2022/01/11 10:28:00;;;;;;;16.73;9.85;;;;;;;3.16;82.96;103446.44;5029313;28;20540;-91
2022/01/11 10:30:27;;;;;;;19.73;10.07;;;;;;;3.24;83.77;103441.34;5012984;28;20022;-91
2022/01/11 10:32:54;;;;;;;15.73;9.40;;;;;;;3.51;83.15;103443.69;5046504;28;20025;-87
2022/01/11 10:35:23;;;;;;;17.60;10.02;;;;;;;3.85;80.30;103444.38;5030295;28;20021;-85
2022/01/11 10:38:11;;;;;;;18.20;9.10;;;;;;;4.00;78.74;103450.81;5014360;28;20087;-86
2022/01/11 10:40:40;;;;;;;;;;;;;;;3.98;79.47;103449.91;5033450;28;20504;-87
2022/01/11 10:43:11;;;;;;;21.02;9.65;;;;;;;3.77;80.76;103452.16;5014341;28;19948;-86
2022/01/11 10:45:42;;;;;;;17.17;9.15;;;;;;;3.55;81.31;103452.56;5033022;28;20052;-88
2022/01/11 10:48:11;;;;;;;16.73;10.20;;;;;;;3.35;83.31;103444.22;5051241;28;20053;-86
2022/01/11 10:51:02;;;;;;;19.90;10.10;;;;;;;3.29;83.38;103443.25;5032350;28;20423;-91
2022/01/11 10:53:32;;;;;;;18.73;9.05;;;;;;;3.21;83.29;103444.81;5044768;28;20049;-88
2022/01/11 10:56:00;;;;;;;15.77;10.55;;;;;;;3.16;83.35;103443.81;5034499;28;20119;-87
2022/01/11 10:58:28;;;;;;;14.65;9.98;;;;;;;3.16;82.97;103438.53;5052482;28;20524;-90
2022/01/11 11:00:55;;;;;;;20.63;10.60;;;;;;;3.21;83.62;103439.53;5045807;28;20025;-87
2022/01/11 11:03:24;;;;;;;15.32;9.30;;;;;;;3.32;82.33;103445.06;5029552;28;20034;-90
2022/01/11 11:06:11;;;;;;;20.70;9.70;;;;;;;3.47;83.40;103442.75;5033432;28;20017;-87
2022/01/11 11:08:44;;;;;;;21.45;10.38;;;;;;;3.56;83.46;103439.41;5031305;28;20389;-82
2022/01/11 11:11:25;;;;;;;21.17;10.00;;;;;;;3.59;82.33;103450.03;5038246;28;20029;-84
2022/01/11 11:13:52;;;;;;;16.80;9.85;;;;;;;3.59;81.62;103446.47;5032540;28;20742;-83
2022/01/11 11:16:21;;;;;;;17.58;9.45;;;;;;;3.70;81.10;103451.97;5048518;28;20397;-84
2022/01/11 11:18:57;;;;;;;13.50;9.07;;;;;;;3.94;80.18;103456.88;5050406;28;20029;-84
2022/01/11 11:21:25;;;;;;;18.85;10.65;;;;;;;4.03;79.13;103449.13;5031584;28;20086;-83